sensor_id;sensor_type;location;lat;lon;timestamp;P1;durP1;ratioP1;P2;durP2;ratioP2
29430;SDS011;16404;49.902;10.074;2023-08-06T00:00:35;9.15;;;4.00;;
29430;SDS011;16404;49.902;10.074;2023-08-06T00:03:20;5.97;;;4.40;;
29430;SDS011;16404;49.902;10.074;2023-08-06T00:06:05;4.72;;;3.78;;
29430;SDS011;16404;49.902;10.074;2023-08-06T00:11:34;5.15;;;4.63;;
29430;SDS011;16404;49.902;10.074;2023-08-06T00:14:19;5.70;;;4.18;;
29430;SDS011;16404;49.902;10.074;2023-08-06T00:17:03;4.45;;;4.03;;
29430;SDS011;16404;49.902;10.074;2023-08-06T00:19:48;6.03;;;4.35;;
29430;SDS011;16404;49.902;10.074;2023-08-06T00:22:34;4.68;;;3.80;;
29430;SDS011;16404;49.902;10.074;2023-08-06T00:25:19;5.95;;;3.92;;
29430;SDS011;16404;49.902;10.074;2023-08-06T00:28:04;4.57;;;3.95;;
29430;SDS011;16404;49.902;10.074;2023-08-06T00:30:55;5.05;;;3.90;;
29430;SDS011;16404;49.902;10.074;2023-08-06T00:33:39;5.53;;;3.92;;
29430;SDS011;16404;49.902;10.074;2023-08-06T00:36:24;4.45;;;3.78;;
29430;SDS011;16404;49.902;10.074;2023-08-06T00:39:08;3.67;;;3.30;;
29430;SDS011;16404;49.902;10.074;2023-08-06T00:41:53;3.80;;;3.40;;
29430;SDS011;16404;49.902;10.074;2023-08-06T00:44:38;7.40;;;3.50;;
29430;SDS011;16404;49.902;10.074;2023-08-06T00:47:23;3.50;;;3.13;;
29430;SDS011;16404;49.902;10.074;2023-08-06T00:52:53;6.25;;;3.25;;
29430;SDS011;16404;49.902;10.074;2023-08-06T00:58:22;3.75;;;3.20;;
29430;SDS011;16404;49.902;10.074;2023-08-06T01:01:07;7.60;;;3.25;;
29430;SDS011;16404;49.902;10.074;2023-08-06T01:03:51;6.30;;;3.45;;
29430;SDS011;16404;49.902;10.074;2023-08-06T01:15:46;3.22;;;2.53;;
29430;SDS011;16404;49.902;10.074;2023-08-06T01:18:33;3.50;;;2.58;;
29430;SDS011;16404;49.902;10.074;2023-08-06T01:21:18;2.30;;;2.10;;
29430;SDS011;16404;49.902;10.074;2023-08-06T01:24:03;3.03;;;2.72;;
29430;SDS011;16404;49.902;10.074;2023-08-06T01:29:40;5.30;;;2.40;;
29430;SDS011;16404;49.902;10.074;2023-08-06T01:32:29;3.63;;;2.65;;
29430;SDS011;16404;49.902;10.074;2023-08-06T01:35:17;2.53;;;2.33;;
29430;SDS011;16404;49.902;10.074;2023-08-06T01:38:03;3.33;;;2.50;;
29430;SDS011;16404;49.902;10.074;2023-08-06T01:40:48;3.92;;;2.45;;
29430;SDS011;16404;49.902;10.074;2023-08-06T01:43:32;4.28;;;3.10;;
29430;SDS011;16404;49.902;10.074;2023-08-06T01:46:17;5.18;;;2.33;;
29430;SDS011;16404;49.902;10.074;2023-08-06T01:49:02;5.93;;;2.78;;
29430;SDS011;16404;49.902;10.074;2023-08-06T01:51:46;3.17;;;2.53;;
29430;SDS011;16404;49.902;10.074;2023-08-06T01:54:31;3.58;;;2.47;;
29430;SDS011;16404;49.902;10.074;2023-08-06T01:57:15;3.63;;;2.38;;
29430;SDS011;16404;49.902;10.074;2023-08-06T02:00:00;4.07;;;2.67;;
29430;SDS011;16404;49.902;10.074;2023-08-06T02:02:44;3.53;;;3.10;;
29430;SDS011;16404;49.902;10.074;2023-08-06T02:05:29;5.80;;;2.75;;
29430;SDS011;16404;49.902;10.074;2023-08-06T02:08:13;10.10;;;2.77;;
29430;SDS011;16404;49.902;10.074;2023-08-06T02:10:58;5.78;;;2.50;;
29430;SDS011;16404;49.902;10.074;2023-08-06T02:13:42;7.85;;;2.42;;
29430;SDS011;16404;49.902;10.074;2023-08-06T02:16:27;3.38;;;2.80;;
29430;SDS011;16404;49.902;10.074;2023-08-06T02:19:12;2.42;;;2.20;;
29430;SDS011;16404;49.902;10.074;2023-08-06T02:21:56;5.72;;;2.67;;
29430;SDS011;16404;49.902;10.074;2023-08-06T02:24:41;3.80;;;2.45;;
29430;SDS011;16404;49.902;10.074;2023-08-06T02:27:27;5.93;;;2.72;;
29430;SDS011;16404;49.902;10.074;2023-08-06T02:30:12;2.85;;;2.63;;
29430;SDS011;16404;49.902;10.074;2023-08-06T02:32:57;7.78;;;3.20;;
29430;SDS011;16404;49.902;10.074;2023-08-06T02:35:41;8.15;;;2.75;;
29430;SDS011;16404;49.902;10.074;2023-08-06T02:38:26;4.03;;;2.73;;
29430;SDS011;16404;49.902;10.074;2023-08-06T02:41:10;4.53;;;2.63;;
29430;SDS011;16404;49.902;10.074;2023-08-06T02:43:55;5.05;;;2.88;;
29430;SDS011;16404;49.902;10.074;2023-08-06T02:46:40;3.20;;;2.50;;
29430;SDS011;16404;49.902;10.074;2023-08-06T02:52:09;6.07;;;2.38;;
29430;SDS011;16404;49.902;10.074;2023-08-06T02:54:54;6.25;;;3.28;;
29430;SDS011;16404;49.902;10.074;2023-08-06T02:57:39;4.15;;;3.08;;
29430;SDS011;16404;49.902;10.074;2023-08-06T03:00:23;2.83;;;2.40;;
29430;SDS011;16404;49.902;10.074;2023-08-06T03:03:08;4.40;;;3.10;;
29430;SDS011;16404;49.902;10.074;2023-08-06T03:06:02;5.20;;;2.88;;
29430;SDS011;16404;49.902;10.074;2023-08-06T03:08:57;3.92;;;2.80;;
29430;SDS011;16404;49.902;10.074;2023-08-06T03:11:42;2.95;;;2.65;;
29430;SDS011;16404;49.902;10.074;2023-08-06T03:14:30;3.75;;;2.80;;
29430;SDS011;16404;49.902;10.074;2023-08-06T03:17:16;5.13;;;2.92;;
29430;SDS011;16404;49.902;10.074;2023-08-06T03:20:00;7.25;;;3.08;;
29430;SDS011;16404;49.902;10.074;2023-08-06T03:22:46;5.97;;;3.05;;
29430;SDS011;16404;49.902;10.074;2023-08-06T03:25:30;5.40;;;2.95;;
29430;SDS011;16404;49.902;10.074;2023-08-06T03:28:15;6.38;;;3.08;;
29430;SDS011;16404;49.902;10.074;2023-08-06T03:31:01;4.85;;;3.20;;
29430;SDS011;16404;49.902;10.074;2023-08-06T03:33:51;4.95;;;3.33;;
29430;SDS011;16404;49.902;10.074;2023-08-06T03:36:41;5.97;;;3.05;;
29430;SDS011;16404;49.902;10.074;2023-08-06T03:39:25;5.40;;;3.30;;
29430;SDS011;16404;49.902;10.074;2023-08-06T03:42:10;5.78;;;3.55;;
29430;SDS011;16404;49.902;10.074;2023-08-06T03:44:55;5.88;;;3.28;;
29430;SDS011;16404;49.902;10.074;2023-08-06T03:47:40;5.97;;;3.20;;
29430;SDS011;16404;49.902;10.074;2023-08-06T03:50:26;4.97;;;3.00;;
29430;SDS011;16404;49.902;10.074;2023-08-06T03:53:10;5.13;;;3.00;;
29430;SDS011;16404;49.902;10.074;2023-08-06T03:55:55;3.10;;;2.80;;
29430;SDS011;16404;49.902;10.074;2023-08-06T03:58:43;5.95;;;3.13;;
29430;SDS011;16404;49.902;10.074;2023-08-06T04:01:28;4.80;;;3.08;;
29430;SDS011;16404;49.902;10.074;2023-08-06T04:04:12;5.20;;;3.20;;
29430;SDS011;16404;49.902;10.074;2023-08-06T04:06:57;5.70;;;3.30;;
29430;SDS011;16404;49.902;10.074;2023-08-06T04:09:54;5.05;;;3.05;;
29430;SDS011;16404;49.902;10.074;2023-08-06T04:12:43;6.55;;;3.20;;
29430;SDS011;16404;49.902;10.074;2023-08-06T04:15:28;3.65;;;3.20;;
29430;SDS011;16404;49.902;10.074;2023-08-06T04:18:12;5.70;;;3.50;;
29430;SDS011;16404;49.902;10.074;2023-08-06T04:20:57;6.50;;;3.38;;
29430;SDS011;16404;49.902;10.074;2023-08-06T04:23:43;7.63;;;3.65;;
29430;SDS011;16404;49.902;10.074;2023-08-06T04:26:28;5.07;;;3.50;;
29430;SDS011;16404;49.902;10.074;2023-08-06T04:29:13;4.40;;;3.40;;
29430;SDS011;16404;49.902;10.074;2023-08-06T04:31:57;5.38;;;3.42;;
29430;SDS011;16404;49.902;10.074;2023-08-06T04:37:27;8.10;;;3.88;;
29430;SDS011;16404;49.902;10.074;2023-08-06T04:40:12;9.70;;;3.45;;
29430;SDS011;16404;49.902;10.074;2023-08-06T04:42:57;7.95;;;3.45;;
29430;SDS011;16404;49.902;10.074;2023-08-06T04:45:46;5.18;;;3.45;;
29430;SDS011;16404;49.902;10.074;2023-08-06T04:48:31;5.85;;;3.42;;
29430;SDS011;16404;49.902;10.074;2023-08-06T04:51:15;5.85;;;3.97;;
29430;SDS011;16404;49.902;10.074;2023-08-06T04:54:00;4.72;;;3.40;;
29430;SDS011;16404;49.902;10.074;2023-08-06T04:56:45;7.15;;;3.78;;
29430;SDS011;16404;49.902;10.074;2023-08-06T04:59:29;4.63;;;3.88;;
29430;SDS011;16404;49.902;10.074;2023-08-06T05:02:14;4.75;;;4.10;;
29430;SDS011;16404;49.902;10.074;2023-08-06T05:04:58;9.23;;;4.00;;
29430;SDS011;16404;49.902;10.074;2023-08-06T05:07:43;4.93;;;4.07;;
29430;SDS011;16404;49.902;10.074;2023-08-06T05:10:29;4.20;;;3.75;;
29430;SDS011;16404;49.902;10.074;2023-08-06T05:13:13;5.53;;;3.88;;
29430;SDS011;16404;49.902;10.074;2023-08-06T05:15:58;7.55;;;3.83;;
29430;SDS011;16404;49.902;10.074;2023-08-06T05:18:42;6.78;;;4.05;;
29430;SDS011;16404;49.902;10.074;2023-08-06T05:21:27;4.97;;;3.47;;
29430;SDS011;16404;49.902;10.074;2023-08-06T05:24:11;7.90;;;3.70;;
29430;SDS011;16404;49.902;10.074;2023-08-06T05:26:56;6.50;;;3.70;;
29430;SDS011;16404;49.902;10.074;2023-08-06T05:29:40;5.70;;;3.47;;
29430;SDS011;16404;49.902;10.074;2023-08-06T05:32:25;5.68;;;3.25;;
29430;SDS011;16404;49.902;10.074;2023-08-06T05:35:10;6.30;;;3.42;;
29430;SDS011;16404;49.902;10.074;2023-08-06T05:37:54;3.72;;;3.08;;
29430;SDS011;16404;49.902;10.074;2023-08-06T05:40:39;3.33;;;2.97;;
29430;SDS011;16404;49.902;10.074;2023-08-06T05:43:23;4.93;;;3.00;;
29430;SDS011;16404;49.902;10.074;2023-08-06T05:46:08;4.93;;;3.00;;
29430;SDS011;16404;49.902;10.074;2023-08-06T05:48:53;3.13;;;2.80;;
29430;SDS011;16404;49.902;10.074;2023-08-06T05:51:37;4.38;;;2.22;;
29430;SDS011;16404;49.902;10.074;2023-08-06T05:54:22;3.88;;;2.50;;
29430;SDS011;16404;49.902;10.074;2023-08-06T05:57:06;5.22;;;2.38;;
29430;SDS011;16404;49.902;10.074;2023-08-06T05:59:51;4.70;;;2.47;;
29430;SDS011;16404;49.902;10.074;2023-08-06T06:02:36;3.67;;;2.60;;
29430;SDS011;16404;49.902;10.074;2023-08-06T06:05:20;5.85;;;2.50;;
29430;SDS011;16404;49.902;10.074;2023-08-06T06:08:05;4.88;;;2.55;;
29430;SDS011;16404;49.902;10.074;2023-08-06T06:10:49;5.37;;;2.80;;
29430;SDS011;16404;49.902;10.074;2023-08-06T06:13:34;5.00;;;2.35;;
29430;SDS011;16404;49.902;10.074;2023-08-06T06:16:18;4.15;;;2.60;;
29430;SDS011;16404;49.902;10.074;2023-08-06T06:19:03;3.13;;;2.35;;
29430;SDS011;16404;49.902;10.074;2023-08-06T06:21:48;4.47;;;2.20;;
29430;SDS011;16404;49.902;10.074;2023-08-06T06:24:32;7.40;;;2.47;;
29430;SDS011;16404;49.902;10.074;2023-08-06T06:27:17;3.55;;;2.20;;
29430;SDS011;16404;49.902;10.074;2023-08-06T06:30:01;3.53;;;2.30;;
29430;SDS011;16404;49.902;10.074;2023-08-06T06:32:48;3.50;;;2.22;;
29430;SDS011;16404;49.902;10.074;2023-08-06T06:35:32;6.43;;;2.13;;
29430;SDS011;16404;49.902;10.074;2023-08-06T06:38:17;3.17;;;2.10;;
29430;SDS011;16404;49.902;10.074;2023-08-06T06:41:01;4.45;;;2.10;;
29430;SDS011;16404;49.902;10.074;2023-08-06T06:43:47;9.13;;;2.42;;
29430;SDS011;16404;49.902;10.074;2023-08-06T06:46:31;4.53;;;2.20;;
29430;SDS011;16404;49.902;10.074;2023-08-06T06:49:16;6.07;;;2.17;;
29430;SDS011;16404;49.902;10.074;2023-08-06T06:52:00;4.60;;;1.75;;
29430;SDS011;16404;49.902;10.074;2023-08-06T06:54:45;10.25;;;2.33;;
29430;SDS011;16404;49.902;10.074;2023-08-06T06:57:29;6.97;;;1.83;;
29430;SDS011;16404;49.902;10.074;2023-08-06T07:00:14;6.38;;;1.70;;
29430;SDS011;16404;49.902;10.074;2023-08-06T07:02:59;3.65;;;1.77;;
29430;SDS011;16404;49.902;10.074;2023-08-06T07:05:44;4.18;;;1.70;;
29430;SDS011;16404;49.902;10.074;2023-08-06T07:08:28;6.65;;;2.03;;
29430;SDS011;16404;49.902;10.074;2023-08-06T07:11:13;3.10;;;1.80;;
29430;SDS011;16404;49.902;10.074;2023-08-06T07:13:57;3.35;;;1.73;;
29430;SDS011;16404;49.902;10.074;2023-08-06T07:16:42;4.97;;;1.60;;
29430;SDS011;16404;49.902;10.074;2023-08-06T07:19:28;3.47;;;1.50;;
29430;SDS011;16404;49.902;10.074;2023-08-06T07:22:13;4.32;;;1.85;;
29430;SDS011;16404;49.902;10.074;2023-08-06T07:24:57;5.65;;;1.60;;
29430;SDS011;16404;49.902;10.074;2023-08-06T07:27:42;2.58;;;1.42;;
29430;SDS011;16404;49.902;10.074;2023-08-06T07:30:27;3.75;;;1.48;;
29430;SDS011;16404;49.902;10.074;2023-08-06T07:33:11;5.53;;;1.58;;
29430;SDS011;16404;49.902;10.074;2023-08-06T07:35:56;1.58;;;1.38;;
29430;SDS011;16404;49.902;10.074;2023-08-06T07:38:40;1.65;;;1.40;;
29430;SDS011;16404;49.902;10.074;2023-08-06T07:41:25;2.10;;;1.40;;
29430;SDS011;16404;49.902;10.074;2023-08-06T07:44:10;2.65;;;1.60;;
29430;SDS011;16404;49.902;10.074;2023-08-06T07:46:54;2.63;;;1.10;;
29430;SDS011;16404;49.902;10.074;2023-08-06T07:49:39;1.63;;;1.15;;
29430;SDS011;16404;49.902;10.074;2023-08-06T07:52:24;2.45;;;1.10;;
29430;SDS011;16404;49.902;10.074;2023-08-06T07:55:08;2.00;;;1.30;;
29430;SDS011;16404;49.902;10.074;2023-08-06T07:57:53;1.98;;;0.80;;
29430;SDS011;16404;49.902;10.074;2023-08-06T08:00:38;2.60;;;0.95;;
29430;SDS011;16404;49.902;10.074;2023-08-06T08:03:25;1.55;;;0.70;;
29430;SDS011;16404;49.902;10.074;2023-08-06T08:06:10;1.58;;;0.82;;
29430;SDS011;16404;49.902;10.074;2023-08-06T08:08:55;3.40;;;0.93;;
29430;SDS011;16404;49.902;10.074;2023-08-06T08:11:39;2.08;;;0.80;;
29430;SDS011;16404;49.902;10.074;2023-08-06T08:14:24;2.10;;;0.77;;
29430;SDS011;16404;49.902;10.074;2023-08-06T08:17:09;2.58;;;0.55;;
29430;SDS011;16404;49.902;10.074;2023-08-06T08:19:54;2.40;;;0.63;;
29430;SDS011;16404;49.902;10.074;2023-08-06T08:22:39;2.95;;;0.60;;
29430;SDS011;16404;49.902;10.074;2023-08-06T08:25:23;2.85;;;0.68;;
29430;SDS011;16404;49.902;10.074;2023-08-06T08:28:08;2.05;;;0.70;;
29430;SDS011;16404;49.902;10.074;2023-08-06T08:30:52;1.90;;;0.75;;
29430;SDS011;16404;49.902;10.074;2023-08-06T08:33:37;0.80;;;0.60;;
29430;SDS011;16404;49.902;10.074;2023-08-06T08:36:22;2.47;;;0.70;;
29430;SDS011;16404;49.902;10.074;2023-08-06T08:39:06;3.22;;;0.60;;
29430;SDS011;16404;49.902;10.074;2023-08-06T08:41:51;0.40;;;0.40;;
29430;SDS011;16404;49.902;10.074;2023-08-06T08:47:23;1.13;;;0.50;;
29430;SDS011;16404;49.902;10.074;2023-08-06T08:50:09;1.05;;;0.60;;
29430;SDS011;16404;49.902;10.074;2023-08-06T08:52:55;1.00;;;0.45;;
29430;SDS011;16404;49.902;10.074;2023-08-06T08:55:39;1.75;;;0.40;;
29430;SDS011;16404;49.902;10.074;2023-08-06T08:58:26;0.60;;;0.60;;
29430;SDS011;16404;49.902;10.074;2023-08-06T09:01:11;1.15;;;0.50;;
29430;SDS011;16404;49.902;10.074;2023-08-06T09:03:56;1.05;;;0.70;;
29430;SDS011;16404;49.902;10.074;2023-08-06T09:06:41;5.22;;;0.70;;
29430;SDS011;16404;49.902;10.074;2023-08-06T09:09:28;1.55;;;0.60;;
29430;SDS011;16404;49.902;10.074;2023-08-06T09:12:17;1.73;;;0.63;;
29430;SDS011;16404;49.902;10.074;2023-08-06T09:15:02;0.73;;;0.60;;
29430;SDS011;16404;49.902;10.074;2023-08-06T09:20:31;2.75;;;0.70;;
29430;SDS011;16404;49.902;10.074;2023-08-06T09:23:18;1.23;;;0.50;;
29430;SDS011;16404;49.902;10.074;2023-08-06T09:26:04;1.88;;;0.40;;
29430;SDS011;16404;49.902;10.074;2023-08-06T09:28:48;0.70;;;0.60;;
29430;SDS011;16404;49.902;10.074;2023-08-06T09:31:34;0.95;;;0.60;;
29430;SDS011;16404;49.902;10.074;2023-08-06T09:34:42;1.33;;;0.40;;
29430;SDS011;16404;49.902;10.074;2023-08-06T09:37:35;2.47;;;0.57;;
29430;SDS011;16404;49.902;10.074;2023-08-06T09:43:13;2.72;;;0.50;;
29430;SDS011;16404;49.902;10.074;2023-08-06T09:45:58;2.83;;;0.50;;
29430;SDS011;16404;49.902;10.074;2023-08-06T09:48:46;1.33;;;0.50;;
29430;SDS011;16404;49.902;10.074;2023-08-06T09:51:30;0.65;;;0.40;;
29430;SDS011;16404;49.902;10.074;2023-08-06T09:54:15;0.30;;;0.30;;
29430;SDS011;16404;49.902;10.074;2023-08-06T09:57:01;0.30;;;0.30;;
29430;SDS011;16404;49.902;10.074;2023-08-06T09:59:45;2.53;;;0.60;;
29430;SDS011;16404;49.902;10.074;2023-08-06T10:02:31;0.98;;;0.30;;
29430;SDS011;16404;49.902;10.074;2023-08-06T10:05:17;0.40;;;0.30;;
29430;SDS011;16404;49.902;10.074;2023-08-06T10:10:47;0.30;;;0.30;;
29430;SDS011;16404;49.902;10.074;2023-08-06T10:13:32;0.40;;;0.40;;
29430;SDS011;16404;49.902;10.074;2023-08-06T10:16:18;0.90;;;0.30;;
29430;SDS011;16404;49.902;10.074;2023-08-06T10:19:03;0.40;;;0.40;;
29430;SDS011;16404;49.902;10.074;2023-08-06T10:24:56;0.30;;;0.30;;
29430;SDS011;16404;49.902;10.074;2023-08-06T10:30:32;0.40;;;0.40;;
29430;SDS011;16404;49.902;10.074;2023-08-06T10:33:19;0.40;;;0.40;;
29430;SDS011;16404;49.902;10.074;2023-08-06T10:36:04;0.45;;;0.40;;
29430;SDS011;16404;49.902;10.074;2023-08-06T10:38:53;0.40;;;0.40;;
29430;SDS011;16404;49.902;10.074;2023-08-06T10:41:42;0.45;;;0.28;;
29430;SDS011;16404;49.902;10.074;2023-08-06T10:44:27;0.68;;;0.40;;
29430;SDS011;16404;49.902;10.074;2023-08-06T10:47:27;0.90;;;0.50;;
29430;SDS011;16404;49.902;10.074;2023-08-06T10:50:15;0.25;;;0.25;;
29430;SDS011;16404;49.902;10.074;2023-08-06T10:53:04;1.10;;;0.40;;
29430;SDS011;16404;49.902;10.074;2023-08-06T10:55:52;0.40;;;0.30;;
29430;SDS011;16404;49.902;10.074;2023-08-06T10:58:36;0.75;;;0.38;;
29430;SDS011;16404;49.902;10.074;2023-08-06T11:01:21;1.25;;;0.35;;
29430;SDS011;16404;49.902;10.074;2023-08-06T11:04:06;0.88;;;0.40;;
29430;SDS011;16404;49.902;10.074;2023-08-06T11:06:52;0.57;;;0.50;;
29430;SDS011;16404;49.902;10.074;2023-08-06T11:09:37;0.30;;;0.30;;
29430;SDS011;16404;49.902;10.074;2023-08-06T11:12:21;0.40;;;0.40;;
29430;SDS011;16404;49.902;10.074;2023-08-06T11:15:06;0.40;;;0.40;;
29430;SDS011;16404;49.902;10.074;2023-08-06T11:17:51;0.30;;;0.30;;
29430;SDS011;16404;49.902;10.074;2023-08-06T11:20:36;0.95;;;0.43;;
29430;SDS011;16404;49.902;10.074;2023-08-06T11:26:05;3.00;;;0.50;;
29430;SDS011;16404;49.902;10.074;2023-08-06T11:28:49;0.45;;;0.30;;
29430;SDS011;16404;49.902;10.074;2023-08-06T11:31:35;0.30;;;0.30;;
29430;SDS011;16404;49.902;10.074;2023-08-06T11:34:20;0.30;;;0.30;;
29430;SDS011;16404;49.902;10.074;2023-08-06T11:37:05;0.40;;;0.40;;
29430;SDS011;16404;49.902;10.074;2023-08-06T11:39:50;0.40;;;0.30;;
29430;SDS011;16404;49.902;10.074;2023-08-06T11:42:36;0.55;;;0.50;;
29430;SDS011;16404;49.902;10.074;2023-08-06T11:45:23;0.40;;;0.40;;
29430;SDS011;16404;49.902;10.074;2023-08-06T11:48:08;0.40;;;0.40;;
29430;SDS011;16404;49.902;10.074;2023-08-06T11:50:56;0.45;;;0.45;;
29430;SDS011;16404;49.902;10.074;2023-08-06T11:53:41;3.72;;;0.40;;
29430;SDS011;16404;49.902;10.074;2023-08-06T11:56:33;0.30;;;0.30;;
29430;SDS011;16404;49.902;10.074;2023-08-06T11:59:19;0.40;;;0.20;;
29430;SDS011;16404;49.902;10.074;2023-08-06T12:02:07;0.40;;;0.40;;
29430;SDS011;16404;49.902;10.074;2023-08-06T12:05:02;0.40;;;0.30;;
29430;SDS011;16404;49.902;10.074;2023-08-06T12:07:51;0.40;;;0.40;;
29430;SDS011;16404;49.902;10.074;2023-08-06T12:10:39;0.38;;;0.38;;
29430;SDS011;16404;49.902;10.074;2023-08-06T12:13:23;1.33;;;0.40;;
29430;SDS011;16404;49.902;10.074;2023-08-06T12:16:08;0.77;;;0.20;;
29430;SDS011;16404;49.902;10.074;2023-08-06T12:18:52;0.30;;;0.30;;
29430;SDS011;16404;49.902;10.074;2023-08-06T12:21:37;1.10;;;0.40;;
29430;SDS011;16404;49.902;10.074;2023-08-06T12:24:22;1.90;;;0.80;;
29430;SDS011;16404;49.902;10.074;2023-08-06T12:27:06;1.25;;;0.43;;
29430;SDS011;16404;49.902;10.074;2023-08-06T12:29:51;0.63;;;0.40;;
29430;SDS011;16404;49.902;10.074;2023-08-06T12:32:36;0.45;;;0.43;;
29430;SDS011;16404;49.902;10.074;2023-08-06T12:38:05;0.90;;;0.30;;
29430;SDS011;16404;49.902;10.074;2023-08-06T12:40:50;0.20;;;0.20;;
29430;SDS011;16404;49.902;10.074;2023-08-06T12:43:35;2.90;;;0.40;;
29430;SDS011;16404;49.902;10.074;2023-08-06T12:46:19;0.30;;;0.30;;
29430;SDS011;16404;49.902;10.074;2023-08-06T12:49:04;0.38;;;0.30;;
29430;SDS011;16404;49.902;10.074;2023-08-06T12:51:48;0.10;;;0.10;;
29430;SDS011;16404;49.902;10.074;2023-08-06T12:54:33;0.35;;;0.30;;
29430;SDS011;16404;49.902;10.074;2023-08-06T12:57:20;0.40;;;0.20;;
29430;SDS011;16404;49.902;10.074;2023-08-06T13:00:05;0.32;;;0.30;;
29430;SDS011;16404;49.902;10.074;2023-08-06T13:05:34;1.65;;;0.60;;
29430;SDS011;16404;49.902;10.074;2023-08-06T13:08:19;0.35;;;0.30;;
29430;SDS011;16404;49.902;10.074;2023-08-06T13:11:04;0.32;;;0.32;;
29430;SDS011;16404;49.902;10.074;2023-08-06T13:13:49;0.30;;;0.30;;
29430;SDS011;16404;49.902;10.074;2023-08-06T13:16:33;0.63;;;0.40;;
29430;SDS011;16404;49.902;10.074;2023-08-06T13:19:18;1.30;;;0.30;;
29430;SDS011;16404;49.902;10.074;2023-08-06T13:22:03;1.35;;;0.30;;
29430;SDS011;16404;49.902;10.074;2023-08-06T13:24:49;1.85;;;0.40;;
29430;SDS011;16404;49.902;10.074;2023-08-06T13:27:33;1.77;;;0.30;;
29430;SDS011;16404;49.902;10.074;2023-08-06T13:30:18;0.40;;;0.20;;
29430;SDS011;16404;49.902;10.074;2023-08-06T13:33:02;1.65;;;0.35;;
29430;SDS011;16404;49.902;10.074;2023-08-06T13:35:48;0.20;;;0.20;;
29430;SDS011;16404;49.902;10.074;2023-08-06T13:38:34;0.20;;;0.20;;
29430;SDS011;16404;49.902;10.074;2023-08-06T13:41:19;0.65;;;0.28;;
29430;SDS011;16404;49.902;10.074;2023-08-06T13:44:04;0.20;;;0.20;;
29430;SDS011;16404;49.902;10.074;2023-08-06T13:46:48;0.10;;;0.10;;
29430;SDS011;16404;49.902;10.074;2023-08-06T13:49:32;0.90;;;0.22;;
29430;SDS011;16404;49.902;10.074;2023-08-06T13:52:17;0.85;;;0.30;;
29430;SDS011;16404;49.902;10.074;2023-08-06T13:55:02;1.13;;;0.40;;
29430;SDS011;16404;49.902;10.074;2023-08-06T13:57:47;0.20;;;0.20;;
29430;SDS011;16404;49.902;10.074;2023-08-06T14:00:32;0.30;;;0.22;;
29430;SDS011;16404;49.902;10.074;2023-08-06T14:03:17;0.20;;;0.20;;
29430;SDS011;16404;49.902;10.074;2023-08-06T14:06:01;0.25;;;0.20;;
29430;SDS011;16404;49.902;10.074;2023-08-06T14:08:46;0.30;;;0.30;;
29430;SDS011;16404;49.902;10.074;2023-08-06T14:11:31;1.48;;;0.40;;
29430;SDS011;16404;49.902;10.074;2023-08-06T14:14:15;0.73;;;0.50;;
29430;SDS011;16404;49.902;10.074;2023-08-06T14:17:00;0.35;;;0.20;;
29430;SDS011;16404;49.902;10.074;2023-08-06T14:19:45;0.93;;;0.30;;
29430;SDS011;16404;49.902;10.074;2023-08-06T14:22:30;0.32;;;0.28;;
29430;SDS011;16404;49.902;10.074;2023-08-06T14:25:15;0.70;;;0.32;;
29430;SDS011;16404;49.902;10.074;2023-08-06T14:27:59;0.63;;;0.32;;
29430;SDS011;16404;49.902;10.074;2023-08-06T14:30:44;0.30;;;0.30;;
29430;SDS011;16404;49.902;10.074;2023-08-06T14:33:28;1.67;;;0.30;;
29430;SDS011;16404;49.902;10.074;2023-08-06T14:36:13;0.90;;;0.40;;
29430;SDS011;16404;49.902;10.074;2023-08-06T14:38:58;0.20;;;0.20;;
29430;SDS011;16404;49.902;10.074;2023-08-06T14:41:42;1.20;;;0.30;;
29430;SDS011;16404;49.902;10.074;2023-08-06T14:44:27;1.50;;;0.32;;
29430;SDS011;16404;49.902;10.074;2023-08-06T14:47:11;0.30;;;0.30;;
29430;SDS011;16404;49.902;10.074;2023-08-06T14:49:56;0.45;;;0.30;;
29430;SDS011;16404;49.902;10.074;2023-08-06T14:52:40;3.15;;;0.20;;
29430;SDS011;16404;49.902;10.074;2023-08-06T14:55:25;0.35;;;0.35;;
29430;SDS011;16404;49.902;10.074;2023-08-06T14:58:10;0.75;;;0.40;;
29430;SDS011;16404;49.902;10.074;2023-08-06T15:00:54;0.93;;;0.40;;
29430;SDS011;16404;49.902;10.074;2023-08-06T15:03:39;0.40;;;0.40;;
29430;SDS011;16404;49.902;10.074;2023-08-06T15:06:23;0.65;;;0.45;;
29430;SDS011;16404;49.902;10.074;2023-08-06T15:09:08;2.38;;;0.40;;
29430;SDS011;16404;49.902;10.074;2023-08-06T15:11:52;3.72;;;0.45;;
29430;SDS011;16404;49.902;10.074;2023-08-06T15:14:37;0.30;;;0.30;;
29430;SDS011;16404;49.902;10.074;2023-08-06T15:17:22;0.43;;;0.40;;
29430;SDS011;16404;49.902;10.074;2023-08-06T15:20:06;1.75;;;0.40;;
29430;SDS011;16404;49.902;10.074;2023-08-06T15:22:51;0.40;;;0.40;;
29430;SDS011;16404;49.902;10.074;2023-08-06T15:25:36;1.27;;;0.32;;
29430;SDS011;16404;49.902;10.074;2023-08-06T15:28:20;0.40;;;0.40;;
29430;SDS011;16404;49.902;10.074;2023-08-06T15:31:05;0.35;;;0.30;;
29430;SDS011;16404;49.902;10.074;2023-08-06T15:33:51;0.40;;;0.40;;
29430;SDS011;16404;49.902;10.074;2023-08-06T15:36:36;0.40;;;0.40;;
29430;SDS011;16404;49.902;10.074;2023-08-06T15:39:21;0.40;;;0.40;;
29430;SDS011;16404;49.902;10.074;2023-08-06T15:42:05;0.63;;;0.50;;
29430;SDS011;16404;49.902;10.074;2023-08-06T15:44:50;1.35;;;0.43;;
29430;SDS011;16404;49.902;10.074;2023-08-06T15:47:34;0.45;;;0.40;;
29430;SDS011;16404;49.902;10.074;2023-08-06T15:50:24;0.90;;;0.52;;
29430;SDS011;16404;49.902;10.074;2023-08-06T15:53:08;0.40;;;0.40;;
29430;SDS011;16404;49.902;10.074;2023-08-06T15:55:54;0.50;;;0.50;;
29430;SDS011;16404;49.902;10.074;2023-08-06T15:58:38;0.60;;;0.53;;
29430;SDS011;16404;49.902;10.074;2023-08-06T16:01:23;1.00;;;0.50;;
29430;SDS011;16404;49.902;10.074;2023-08-06T16:04:08;0.80;;;0.70;;
29430;SDS011;16404;49.902;10.074;2023-08-06T16:06:52;1.25;;;0.50;;
29430;SDS011;16404;49.902;10.074;2023-08-06T16:09:37;0.55;;;0.55;;
29430;SDS011;16404;49.902;10.074;2023-08-06T16:12:22;0.57;;;0.52;;
29430;SDS011;16404;49.902;10.074;2023-08-06T16:15:06;0.57;;;0.45;;
29430;SDS011;16404;49.902;10.074;2023-08-06T16:17:51;1.38;;;0.63;;
29430;SDS011;16404;49.902;10.074;2023-08-06T16:20:40;0.75;;;0.50;;
29430;SDS011;16404;49.902;10.074;2023-08-06T16:23:28;1.55;;;0.50;;
29430;SDS011;16404;49.902;10.074;2023-08-06T16:26:13;0.43;;;0.43;;
29430;SDS011;16404;49.902;10.074;2023-08-06T16:28:57;0.50;;;0.50;;
29430;SDS011;16404;49.902;10.074;2023-08-06T16:31:42;0.98;;;0.60;;
29430;SDS011;16404;49.902;10.074;2023-08-06T16:34:27;0.63;;;0.40;;
29430;SDS011;16404;49.902;10.074;2023-08-06T16:37:12;3.42;;;0.60;;
29430;SDS011;16404;49.902;10.074;2023-08-06T16:42:41;0.63;;;0.60;;
29430;SDS011;16404;49.902;10.074;2023-08-06T16:45:25;1.60;;;0.60;;
29430;SDS011;16404;49.902;10.074;2023-08-06T16:48:10;2.45;;;0.40;;
29430;SDS011;16404;49.902;10.074;2023-08-06T16:50:55;0.70;;;0.68;;
29430;SDS011;16404;49.902;10.074;2023-08-06T16:53:42;2.42;;;0.73;;
29430;SDS011;16404;49.902;10.074;2023-08-06T16:56:27;0.80;;;0.38;;
29430;SDS011;16404;49.902;10.074;2023-08-06T16:59:13;0.50;;;0.50;;
29430;SDS011;16404;49.902;10.074;2023-08-06T17:01:58;0.98;;;0.38;;
29430;SDS011;16404;49.902;10.074;2023-08-06T17:04:45;0.52;;;0.30;;
29430;SDS011;16404;49.902;10.074;2023-08-06T17:07:30;0.57;;;0.40;;
29430;SDS011;16404;49.902;10.074;2023-08-06T17:10:15;0.52;;;0.52;;
29430;SDS011;16404;49.902;10.074;2023-08-06T17:13:03;0.60;;;0.40;;